createdAt,value
2022-07-31T00:00:35.509Z,20.83
2022-07-31T00:03:03.249Z,20.81
2022-07-31T00:05:31.275Z,20.78
2022-07-31T00:07:59.401Z,20.75
2022-07-31T00:10:27.113Z,20.72
2022-07-31T00:12:54.781Z,20.71
2022-07-31T00:15:22.505Z,20.69
2022-07-31T00:17:50.678Z,20.65
2022-07-31T00:20:18.557Z,20.63
2022-07-31T00:22:46.258Z,20.60
2022-07-31T00:25:14.094Z,20.58
2022-07-31T00:27:42.142Z,20.55
2022-07-31T00:30:10.084Z,20.52
2022-07-31T00:32:37.772Z,20.45
2022-07-31T00:35:06.055Z,20.37
2022-07-31T00:37:33.960Z,20.30
2022-07-31T00:40:01.739Z,20.24
2022-07-31T00:42:29.363Z,20.18
2022-07-31T00:44:57.446Z,20.12
2022-07-31T00:47:27.483Z,20.05
2022-07-31T00:49:57.472Z,19.98
2022-07-31T00:52:25.406Z,19.94
2022-07-31T00:54:53.653Z,19.91
2022-07-31T00:57:21.420Z,19.85
2022-07-31T00:59:49.182Z,19.82
2022-07-31T01:02:17.019Z,19.78
2022-07-31T01:04:45.906Z,19.75
2022-07-31T01:07:14.490Z,19.71
2022-07-31T01:09:42.766Z,19.70
2022-07-31T01:12:10.437Z,19.67
2022-07-31T01:14:38.210Z,19.63
2022-07-31T01:17:07.376Z,19.59
2022-07-31T01:19:37.961Z,19.55
2022-07-31T01:22:33.338Z,19.48
2022-07-31T01:24:58.393Z,19.40
2022-07-31T01:27:26.069Z,19.35
2022-07-31T01:29:54.955Z,19.30
2022-07-31T01:32:27.467Z,19.26
2022-07-31T01:34:55.597Z,19.21
2022-07-31T01:37:23.809Z,19.16
2022-07-31T01:39:51.625Z,19.12
2022-07-31T01:42:19.262Z,19.08
2022-07-31T01:44:46.939Z,19.05
2022-07-31T01:47:15.043Z,19.00
2022-07-31T01:49:42.741Z,18.96
2022-07-31T01:52:10.427Z,18.93
2022-07-31T01:54:38.308Z,18.87
2022-07-31T01:57:06.487Z,18.83
2022-07-31T01:59:34.187Z,18.76
2022-07-31T02:02:03.597Z,18.70
2022-07-31T02:04:33.368Z,18.64
2022-07-31T02:07:01.393Z,18.56
2022-07-31T02:09:29.021Z,18.49
2022-07-31T02:11:56.780Z,18.42
2022-07-31T02:14:24.509Z,18.37
2022-07-31T02:16:52.720Z,18.32
2022-07-31T02:19:20.372Z,18.27
2022-07-31T02:21:51.109Z,18.23
2022-07-31T02:24:18.846Z,18.17
2022-07-31T02:26:46.578Z,18.14
2022-07-31T02:29:19.352Z,18.12
2022-07-31T02:31:48.536Z,18.09
2022-07-31T02:34:30.509Z,18.08
2022-07-31T02:36:58.603Z,18.05
2022-07-31T02:39:30.311Z,18.04
2022-07-31T02:42:01.677Z,18.01
2022-07-31T02:44:29.816Z,18.00
2022-07-31T02:46:58.272Z,17.99
2022-07-31T02:49:25.990Z,17.99
2022-07-31T02:51:53.669Z,17.98
2022-07-31T02:54:21.349Z,17.96
2022-07-31T02:56:48.973Z,17.93
2022-07-31T02:59:16.716Z,17.89
2022-07-31T03:01:44.441Z,17.83
2022-07-31T03:04:12.499Z,17.81
2022-07-31T03:06:40.839Z,17.77
2022-07-31T03:09:08.471Z,17.75
2022-07-31T03:11:36.255Z,17.72
2022-07-31T03:14:03.928Z,17.70
2022-07-31T03:16:31.989Z,17.68
2022-07-31T03:18:59.904Z,17.65
2022-07-31T03:21:27.633Z,17.61
2022-07-31T03:23:55.567Z,17.59
2022-07-31T03:26:24.680Z,17.58
2022-07-31T03:28:52.432Z,17.56
2022-07-31T03:31:20.159Z,17.57
2022-07-31T03:33:47.803Z,17.56
2022-07-31T03:36:15.524Z,17.57
2022-07-31T03:38:47.573Z,17.58
2022-07-31T03:41:18.366Z,17.60
2022-07-31T03:43:47.912Z,17.62
2022-07-31T03:46:15.852Z,17.65
2022-07-31T03:48:43.553Z,17.69
2022-07-31T03:51:11.229Z,17.72
2022-07-31T03:53:39.811Z,17.77
2022-07-31T03:56:07.522Z,17.82
2022-07-31T03:58:36.738Z,17.88
2022-07-31T04:01:10.328Z,17.94
2022-07-31T04:03:39.901Z,17.99
2022-07-31T04:06:07.827Z,18.04
2022-07-31T04:08:35.777Z,18.10
2022-07-31T04:11:03.469Z,18.17
2022-07-31T04:13:31.190Z,18.22
2022-07-31T04:15:58.795Z,18.28
2022-07-31T04:18:26.949Z,18.33
2022-07-31T04:20:54.616Z,18.38
2022-07-31T04:23:22.335Z,18.43
2022-07-31T04:26:00.199Z,18.48
2022-07-31T04:28:30.179Z,18.55
2022-07-31T04:30:57.791Z,18.61
2022-07-31T04:33:25.466Z,18.68
2022-07-31T04:35:53.091Z,18.76
2022-07-31T04:38:22.119Z,18.86
2022-07-31T04:40:49.807Z,18.95
2022-07-31T04:43:18.186Z,19.02
2022-07-31T04:45:45.979Z,19.08
2022-07-31T04:48:14.201Z,19.10
2022-07-31T04:50:41.895Z,19.15
2022-07-31T04:53:09.567Z,19.17
2022-07-31T04:55:37.175Z,19.19
2022-07-31T04:58:05.196Z,19.22
2022-07-31T05:00:32.951Z,19.29
2022-07-31T05:03:00.636Z,19.36
2022-07-31T05:05:28.296Z,19.42
2022-07-31T05:07:56.951Z,19.49
2022-07-31T05:10:42.218Z,19.52
2022-07-31T05:13:09.882Z,19.58
2022-07-31T05:15:38.220Z,19.61
2022-07-31T05:18:07.825Z,19.65
2022-07-31T05:20:35.471Z,19.67
2022-07-31T05:23:03.210Z,19.69
2022-07-31T05:25:34.868Z,19.73
2022-07-31T05:28:02.481Z,19.80
2022-07-31T05:30:30.874Z,19.92
2022-07-31T05:32:58.710Z,20.05
2022-07-31T05:35:26.434Z,20.19
2022-07-31T05:37:54.482Z,20.32
2022-07-31T05:40:22.120Z,20.45
2022-07-31T05:42:49.841Z,20.56
2022-07-31T05:45:17.815Z,20.67
2022-07-31T05:47:45.971Z,20.80
2022-07-31T05:50:14.587Z,20.94
2022-07-31T05:52:42.872Z,21.08
2022-07-31T05:55:10.502Z,21.19
2022-07-31T05:57:38.658Z,21.29
2022-07-31T06:00:06.404Z,21.37
2022-07-31T06:02:34.083Z,21.43
2022-07-31T06:05:01.849Z,21.49
2022-07-31T06:07:30.551Z,21.54
2022-07-31T06:09:58.215Z,21.56
2022-07-31T06:12:25.894Z,21.59
2022-07-31T06:14:53.563Z,21.64
2022-07-31T06:17:21.507Z,21.72
2022-07-31T06:19:50.185Z,21.80
2022-07-31T06:22:17.967Z,21.88
2022-07-31T06:24:45.695Z,21.94
2022-07-31T06:27:33.484Z,22.01
2022-07-31T06:30:01.824Z,22.09
2022-07-31T06:32:29.452Z,22.13
2022-07-31T06:34:57.207Z,22.16
2022-07-31T06:37:26.636Z,22.21
2022-07-31T06:39:55.636Z,22.24
2022-07-31T06:42:24.226Z,22.27
2022-07-31T06:44:51.966Z,22.29
2022-07-31T06:47:20.067Z,22.40
2022-07-31T06:49:47.773Z,22.50
2022-07-31T06:52:16.175Z,22.70
2022-07-31T06:54:44.325Z,22.98
2022-07-31T06:57:12.695Z,23.21
2022-07-31T06:59:40.898Z,23.38
2022-07-31T07:02:08.769Z,23.58
2022-07-31T07:04:56.471Z,23.70
2022-07-31T07:07:24.334Z,23.76
2022-07-31T07:09:59.292Z,23.81
2022-07-31T07:12:27.031Z,23.88
2022-07-31T07:14:56.125Z,23.94
2022-07-31T07:17:27.238Z,23.98
2022-07-31T07:19:58.990Z,24.03
2022-07-31T07:22:31.111Z,24.09
2022-07-31T07:24:59.696Z,24.09
2022-07-31T07:27:27.723Z,24.05
2022-07-31T07:29:55.471Z,24.00
2022-07-31T07:32:23.137Z,23.92
2022-07-31T07:34:59.640Z,23.85
2022-07-31T07:37:28.584Z,23.76
2022-07-31T07:39:56.274Z,23.73
2022-07-31T07:42:24.016Z,23.71
2022-07-31T07:44:51.993Z,23.78
2022-07-31T07:47:19.600Z,23.89
2022-07-31T07:49:47.294Z,24.01
2022-07-31T07:52:15.300Z,24.14
2022-07-31T07:54:44.182Z,24.18
2022-07-31T07:57:11.805Z,24.19
2022-07-31T07:59:39.638Z,24.19
2022-07-31T08:02:07.467Z,24.18
2022-07-31T08:04:35.336Z,24.18
2022-07-31T08:07:05.123Z,24.23
2022-07-31T08:09:32.817Z,24.33
2022-07-31T08:12:00.553Z,24.46
2022-07-31T08:14:28.376Z,24.63
2022-07-31T08:16:56.349Z,24.71
2022-07-31T08:19:25.143Z,24.70
2022-07-31T08:21:52.932Z,24.70
2022-07-31T08:24:20.665Z,24.71
2022-07-31T08:27:09.894Z,24.73
2022-07-31T08:29:38.891Z,24.78
2022-07-31T08:32:10.540Z,24.86
2022-07-31T08:34:41.989Z,24.98
2022-07-31T08:37:52.338Z,25.09
2022-07-31T08:39:58.326Z,25.20
2022-07-31T08:42:25.973Z,25.23
2022-07-31T08:44:54.115Z,25.26
2022-07-31T08:47:21.845Z,25.25
2022-07-31T08:49:49.619Z,25.28
2022-07-31T08:52:17.355Z,25.33
2022-07-31T08:54:46.255Z,25.35
2022-07-31T08:57:14.002Z,25.32
2022-07-31T08:59:42.361Z,25.27
2022-07-31T09:02:10.134Z,25.15
2022-07-31T09:04:37.857Z,25.03
2022-07-31T09:07:06.208Z,24.93
2022-07-31T09:09:45.232Z,24.84
2022-07-31T09:12:20.626Z,24.73
2022-07-31T09:15:01.529Z,24.66
2022-07-31T09:17:29.828Z,24.65
2022-07-31T09:19:57.852Z,24.61
2022-07-31T09:22:25.570Z,24.57
2022-07-31T09:24:53.423Z,24.48
2022-07-31T09:27:21.156Z,24.41
2022-07-31T09:29:49.693Z,24.36
2022-07-31T09:32:17.433Z,24.30
2022-07-31T09:34:45.145Z,24.29
2022-07-31T09:37:13.398Z,24.27
2022-07-31T09:39:51.844Z,24.21
2022-07-31T09:42:20.346Z,24.28
2022-07-31T09:44:49.182Z,24.39
2022-07-31T09:47:16.920Z,24.46
2022-07-31T09:49:44.568Z,24.48
2022-07-31T09:52:12.336Z,24.50
2022-07-31T09:54:40.518Z,24.51
2022-07-31T09:57:08.255Z,24.54
2022-07-31T09:59:35.923Z,24.53
2022-07-31T10:02:03.553Z,24.55
2022-07-31T10:04:31.370Z,24.62
2022-07-31T10:06:59.399Z,24.68
2022-07-31T10:09:27.126Z,24.72
2022-07-31T10:11:54.885Z,24.71
2022-07-31T10:14:22.757Z,24.74
2022-07-31T10:16:51.815Z,24.72
2022-07-31T10:19:19.496Z,24.74
2022-07-31T10:21:47.237Z,24.75
2022-07-31T10:24:14.876Z,24.83
2022-07-31T10:27:00.273Z,24.88
2022-07-31T10:29:32.178Z,24.92
2022-07-31T10:32:00.731Z,24.92
2022-07-31T10:34:28.457Z,24.98
2022-07-31T10:36:56.588Z,24.97
2022-07-31T10:39:25.003Z,24.98
2022-07-31T10:41:52.744Z,25.00
2022-07-31T10:44:22.398Z,25.06
2022-07-31T10:46:50.457Z,25.21
2022-07-31T10:49:18.337Z,25.33
2022-07-31T10:51:46.144Z,25.37
2022-07-31T10:54:14.484Z,25.40
2022-07-31T10:56:42.637Z,25.40
2022-07-31T10:59:10.526Z,25.45
2022-07-31T11:01:39.845Z,25.52
2022-07-31T11:04:21.318Z,25.66
2022-07-31T11:06:51.770Z,25.78
2022-07-31T11:09:19.476Z,26.01
2022-07-31T11:11:47.138Z,26.28
2022-07-31T11:14:14.877Z,26.48
2022-07-31T11:16:42.920Z,26.62
2022-07-31T11:19:10.903Z,26.73
2022-07-31T11:21:39.744Z,26.77
2022-07-31T11:24:11.430Z,26.79
2022-07-31T11:26:41.331Z,26.79
2022-07-31T11:30:01.279Z,26.85
2022-07-31T11:31:57.669Z,26.74
2022-07-31T11:34:26.229Z,26.55
2022-07-31T11:36:54.412Z,26.39
2022-07-31T11:39:26.621Z,26.29
2022-07-31T11:42:04.326Z,26.28
2022-07-31T11:44:32.859Z,26.38
2022-07-31T11:47:00.608Z,26.63
2022-07-31T11:49:48.252Z,27.04
2022-07-31T11:52:31.052Z,27.57
2022-07-31T11:55:08.789Z,28.04
2022-07-31T11:57:52.521Z,28.59
2022-07-31T12:00:24.733Z,29.31
2022-07-31T12:02:57.836Z,29.40
2022-07-31T12:05:38.871Z,29.22
2022-07-31T12:08:07.544Z,29.83
2022-07-31T12:10:35.237Z,30.11
2022-07-31T12:13:02.972Z,29.93
2022-07-31T12:15:31.043Z,29.86
2022-07-31T12:17:58.805Z,29.83
2022-07-31T12:20:35.318Z,29.61
2022-07-31T12:23:03.917Z,29.27
2022-07-31T12:25:32.090Z,28.94
2022-07-31T12:27:59.775Z,28.57
2022-07-31T12:30:30.096Z,28.21
2022-07-31T12:32:57.929Z,28.01
2022-07-31T12:35:25.878Z,27.90
2022-07-31T12:38:30.194Z,27.80
2022-07-31T12:41:01.504Z,27.69
2022-07-31T12:43:29.323Z,27.61
2022-07-31T12:46:00.416Z,27.46
2022-07-31T12:48:28.278Z,27.32
2022-07-31T12:50:56.207Z,27.12
2022-07-31T12:53:23.919Z,26.93
2022-07-31T12:55:51.662Z,26.74
2022-07-31T12:58:19.290Z,26.51
2022-07-31T13:00:46.938Z,26.24
2022-07-31T13:03:14.743Z,25.95
2022-07-31T13:05:42.413Z,25.77
2022-07-31T13:08:10.487Z,25.70
2022-07-31T13:10:38.183Z,25.71
2022-07-31T13:13:06.217Z,25.78
2022-07-31T13:15:34.009Z,25.91
2022-07-31T13:18:03.453Z,26.02
2022-07-31T13:20:31.478Z,26.21
2022-07-31T13:22:59.813Z,26.55
2022-07-31T13:25:27.835Z,26.91
2022-07-31T13:27:56.150Z,27.24
2022-07-31T13:30:23.823Z,27.53
2022-07-31T13:32:51.616Z,27.73
2022-07-31T13:35:28.403Z,27.87
2022-07-31T13:37:57.256Z,28.16
2022-07-31T13:40:45.160Z,28.33
2022-07-31T13:43:14.202Z,28.34
2022-07-31T13:45:41.955Z,28.26
2022-07-31T13:48:10.385Z,28.18
2022-07-31T13:50:39.921Z,28.13
2022-07-31T13:53:08.403Z,28.07
2022-07-31T13:55:36.158Z,28.03
2022-07-31T13:58:03.945Z,27.99
2022-07-31T14:00:31.785Z,27.86
2022-07-31T14:02:59.408Z,27.64
2022-07-31T14:05:27.512Z,27.53
2022-07-31T14:07:55.864Z,27.37
2022-07-31T14:10:23.652Z,27.20
2022-07-31T14:12:51.330Z,27.05
2022-07-31T14:15:19.081Z,27.02
2022-07-31T14:17:47.230Z,27.07
2022-07-31T14:20:14.940Z,27.15
2022-07-31T14:22:42.662Z,27.17
2022-07-31T14:25:10.323Z,27.17
2022-07-31T14:27:39.565Z,27.23
2022-07-31T14:30:07.290Z,27.31
2022-07-31T14:32:35.037Z,27.37
2022-07-31T14:35:07.821Z,27.29
2022-07-31T14:37:36.613Z,27.16
2022-07-31T14:40:04.368Z,27.06
2022-07-31T14:42:32.097Z,27.01
2022-07-31T14:45:00.324Z,27.01
2022-07-31T14:47:27.973Z,26.97
2022-07-31T14:50:10.673Z,26.82
2022-07-31T14:52:39.778Z,26.80
2022-07-31T14:55:07.515Z,26.97
2022-07-31T14:57:36.614Z,26.99
2022-07-31T15:00:09.831Z,26.90
2022-07-31T15:02:39.548Z,26.77
2022-07-31T15:06:37.702Z,26.66
2022-07-31T15:07:55.147Z,26.61
2022-07-31T15:10:22.924Z,26.92
2022-07-31T15:12:51.950Z,27.95
2022-07-31T15:15:20.193Z,28.63
2022-07-31T15:17:47.866Z,29.19
2022-07-31T15:20:16.331Z,29.29
2022-07-31T15:22:44.041Z,28.81
2022-07-31T15:25:11.805Z,28.21
2022-07-31T15:27:39.582Z,27.81
2022-07-31T15:30:08.007Z,27.52
2022-07-31T15:32:35.903Z,27.33
2022-07-31T15:35:03.595Z,27.35
2022-07-31T15:37:31.756Z,27.49
2022-07-31T15:40:02.792Z,28.01
2022-07-31T15:42:31.252Z,28.49
2022-07-31T15:44:59.102Z,28.71
2022-07-31T15:47:27.153Z,29.59
2022-07-31T15:49:54.870Z,30.49
2022-07-31T15:52:22.571Z,30.87
2022-07-31T15:54:51.832Z,31.41
2022-07-31T15:57:20.219Z,31.85
2022-07-31T15:59:48.100Z,31.84
2022-07-31T16:02:15.873Z,31.15
2022-07-31T16:04:51.534Z,30.32
2022-07-31T16:08:32.918Z,29.42
2022-07-31T16:10:16.182Z,28.69
2022-07-31T16:12:45.055Z,28.23
2022-07-31T16:15:12.915Z,27.91
2022-07-31T16:17:40.853Z,27.64
2022-07-31T16:20:08.963Z,27.40
2022-07-31T16:22:36.805Z,27.19
2022-07-31T16:25:05.892Z,26.99
2022-07-31T16:27:33.651Z,26.65
2022-07-31T16:30:02.854Z,25.77
2022-07-31T16:32:30.942Z,25.05
2022-07-31T16:35:01.349Z,24.66
2022-07-31T16:37:50.069Z,24.81
2022-07-31T16:40:28.404Z,24.88
2022-07-31T16:43:01.046Z,24.78
2022-07-31T16:45:28.908Z,24.68
2022-07-31T16:47:56.827Z,24.59
2022-07-31T16:50:24.575Z,24.45
2022-07-31T16:52:54.787Z,24.29
2022-07-31T16:55:55.713Z,24.17
2022-07-31T16:58:11.838Z,24.08
2022-07-31T17:00:39.839Z,24.09
2022-07-31T17:03:58.748Z,24.17
2022-07-31T17:05:55.885Z,24.28
2022-07-31T17:08:23.640Z,24.29
2022-07-31T17:10:54.589Z,24.25
2022-07-31T17:13:22.549Z,24.18
2022-07-31T17:15:50.737Z,24.12
2022-07-31T17:18:18.589Z,24.09
2022-07-31T17:20:47.271Z,24.06
2022-07-31T17:23:15.801Z,24.05
2022-07-31T17:25:44.016Z,24.00
2022-07-31T17:28:15.332Z,23.97
2022-07-31T17:30:45.098Z,23.92
2022-07-31T17:33:12.878Z,23.88
2022-07-31T17:35:40.607Z,23.85
2022-07-31T17:38:08.641Z,23.83
2022-07-31T17:40:44.334Z,23.82
2022-07-31T17:43:13.200Z,23.78
2022-07-31T17:45:59.551Z,23.75
2022-07-31T17:48:29.243Z,23.68
2022-07-31T17:50:57.051Z,23.60
2022-07-31T17:53:54.765Z,23.55
2022-07-31T17:56:13.217Z,23.51
2022-07-31T17:58:41.060Z,23.48
2022-07-31T18:01:08.998Z,23.43
2022-07-31T18:03:36.749Z,23.37
2022-07-31T18:06:05.283Z,23.35
2022-07-31T18:08:33.521Z,23.25
2022-07-31T18:11:01.307Z,22.91
2022-07-31T18:13:29.258Z,22.46
2022-07-31T18:15:57.034Z,22.11
2022-07-31T18:18:26.087Z,21.85
2022-07-31T18:20:53.844Z,21.66
2022-07-31T18:23:23.171Z,21.53
2022-07-31T18:25:51.683Z,21.44
2022-07-31T18:28:19.771Z,21.37
2022-07-31T18:30:47.565Z,21.33
2022-07-31T18:33:17.484Z,21.28
2022-07-31T18:35:45.189Z,21.28
2022-07-31T18:38:13.464Z,21.23
2022-07-31T18:40:41.479Z,21.24
2022-07-31T18:43:09.333Z,21.24
2022-07-31T18:45:39.519Z,21.21
2022-07-31T18:48:09.539Z,21.21
2022-07-31T18:50:58.462Z,21.13
2022-07-31T18:53:25.131Z,21.02
2022-07-31T18:55:53.069Z,20.91
2022-07-31T18:58:20.894Z,20.79
2022-07-31T19:00:52.914Z,20.70
2022-07-31T19:03:22.367Z,20.62
2022-07-31T19:05:51.023Z,20.56
2022-07-31T19:08:19.924Z,20.53
2022-07-31T19:10:49.800Z,20.50
2022-07-31T19:13:19.401Z,20.49
2022-07-31T19:15:47.454Z,20.47
2022-07-31T19:18:15.660Z,20.47
2022-07-31T19:21:00.283Z,20.46
2022-07-31T19:23:33.021Z,20.50
2022-07-31T19:26:03.593Z,20.51
2022-07-31T19:28:32.412Z,20.50
2022-07-31T19:31:00.064Z,20.54
2022-07-31T19:33:27.816Z,20.55
2022-07-31T19:36:01.510Z,20.55
2022-07-31T19:38:30.612Z,20.55
2022-07-31T19:40:58.320Z,20.56
2022-07-31T19:43:26.046Z,20.58
2022-07-31T19:45:58.834Z,20.62
2022-07-31T19:48:39.809Z,20.66
2022-07-31T19:51:07.656Z,20.68
2022-07-31T19:53:35.788Z,20.64
2022-07-31T19:56:05.912Z,20.63
2022-07-31T19:58:34.501Z,20.60
2022-07-31T20:01:02.468Z,20.58
2022-07-31T20:03:30.420Z,20.57
2022-07-31T20:05:58.401Z,20.57
2022-07-31T20:08:26.459Z,20.57
2022-07-31T20:10:59.568Z,20.58
2022-07-31T20:13:28.174Z,20.57
2022-07-31T20:15:55.867Z,20.57
2022-07-31T20:18:28.595Z,20.58
2022-07-31T20:20:57.275Z,20.58
2022-07-31T20:23:25.116Z,20.61
2022-07-31T20:25:52.854Z,20.63
2022-07-31T20:28:20.760Z,20.65
2022-07-31T20:30:48.583Z,20.69
2022-07-31T20:33:16.265Z,20.73
2022-07-31T20:35:48.753Z,20.74
2022-07-31T20:38:17.295Z,20.77
2022-07-31T20:40:51.159Z,20.80
2022-07-31T20:43:22.624Z,20.82
2022-07-31T20:45:50.644Z,20.82
2022-07-31T20:48:19.078Z,20.82
2022-07-31T20:50:47.781Z,20.82
2022-07-31T20:53:15.758Z,20.80
2022-07-31T20:55:47.124Z,20.81
2022-07-31T20:58:14.908Z,20.79
2022-07-31T21:00:42.584Z,20.80
2022-07-31T21:03:10.425Z,20.78
2022-07-31T21:05:38.572Z,20.78
2022-07-31T21:08:06.549Z,20.76
2022-07-31T21:10:34.461Z,20.76
2022-07-31T21:13:02.123Z,20.77
2022-07-31T21:15:44.235Z,20.77
2022-07-31T21:18:14.242Z,20.77
2022-07-31T21:20:50.837Z,20.77
2022-07-31T21:23:20.923Z,20.77
2022-07-31T21:25:49.127Z,20.75
2022-07-31T21:28:16.887Z,20.76
2022-07-31T21:30:44.594Z,20.77
2022-07-31T21:33:12.306Z,20.77
2022-07-31T21:35:40.821Z,20.78
2022-07-31T21:38:12.222Z,20.77
2022-07-31T21:40:40.345Z,20.77
2022-07-31T21:43:08.197Z,20.78
2022-07-31T21:45:45.703Z,20.77
2022-07-31T21:48:22.746Z,20.75
2022-07-31T21:50:50.452Z,20.75
2022-07-31T21:53:18.576Z,20.73
2022-07-31T21:55:46.366Z,20.72
2022-07-31T21:58:13.996Z,20.69
2022-07-31T22:00:41.760Z,20.65
2022-07-31T22:03:09.619Z,20.61
2022-07-31T22:05:54.631Z,20.58
2022-07-31T22:08:22.888Z,20.55
2022-07-31T22:10:50.582Z,20.48
2022-07-31T22:13:18.269Z,20.41
2022-07-31T22:15:58.905Z,20.35
2022-07-31T22:18:28.998Z,20.34
2022-07-31T22:20:56.825Z,20.32
2022-07-31T22:23:24.445Z,20.29
2022-07-31T22:25:52.504Z,20.26
2022-07-31T22:28:20.227Z,20.22
2022-07-31T22:30:47.879Z,20.21
2022-07-31T22:33:15.611Z,20.19
2022-07-31T22:35:43.333Z,20.18
2022-07-31T22:38:12.520Z,20.17
2022-07-31T22:40:40.285Z,20.18
2022-07-31T22:44:10.588Z,20.18
2022-07-31T22:45:59.589Z,20.17
2022-07-31T22:48:28.012Z,20.19
2022-07-31T22:50:56.178Z,20.20
2022-07-31T22:53:24.157Z,20.21
2022-07-31T22:55:53.177Z,20.23
2022-07-31T22:58:20.902Z,20.25
2022-07-31T23:00:48.641Z,20.27
2022-07-31T23:03:17.376Z,20.27
2022-07-31T23:06:27.985Z,20.29
2022-07-31T23:08:32.809Z,20.30
2022-07-31T23:11:00.487Z,20.30
2022-07-31T23:13:28.340Z,20.31
2022-07-31T23:15:56.261Z,20.26
2022-07-31T23:18:24.040Z,20.23
2022-07-31T23:20:51.845Z,20.21
2022-07-31T23:23:19.918Z,20.19
2022-07-31T23:25:47.749Z,20.18
2022-07-31T23:28:15.426Z,20.17
2022-07-31T23:30:43.117Z,20.18
2022-07-31T23:33:12.490Z,20.18
2022-07-31T23:35:40.282Z,20.20
2022-07-31T23:38:09.311Z,20.20
2022-07-31T23:40:37.044Z,20.21
2022-07-31T23:43:03.727Z,20.21
2022-07-31T23:45:31.398Z,20.20
2022-07-31T23:48:00.013Z,20.19
2022-07-31T23:50:28.346Z,20.19
2022-07-31T23:52:56.057Z,20.18
2022-07-31T23:55:23.697Z,20.15
2022-07-31T23:57:52.287Z,20.12
